createdAt,value
2023-01-20T00:02:27.114Z,15.84
2023-01-20T00:06:44.688Z,15.67
2023-01-20T00:11:13.089Z,15.75
2023-01-20T00:15:30.573Z,15.21
2023-01-20T00:19:48.122Z,14.11
2023-01-20T00:24:06.392Z,14.86
2023-01-20T00:28:23.901Z,15.45
2023-01-20T00:32:45.190Z,15.59
2023-01-20T00:37:02.718Z,15.60
2023-01-20T00:41:20.548Z,15.77
2023-01-20T00:45:38.082Z,15.74
2023-01-20T00:49:55.920Z,15.80
2023-01-20T00:54:13.565Z,15.71
2023-01-20T00:58:31.205Z,15.79
2023-01-20T01:02:48.660Z,15.20
2023-01-20T01:07:05.891Z,14.12
2023-01-20T01:11:23.525Z,14.88
2023-01-20T01:15:49.882Z,15.41
2023-01-20T01:20:08.068Z,15.67
2023-01-20T01:24:25.692Z,15.64
2023-01-20T01:28:43.553Z,15.69
2023-01-20T01:33:01.229Z,15.68
2023-01-20T01:37:18.938Z,15.61
2023-01-20T01:41:36.555Z,15.65
2023-01-20T01:45:54.702Z,15.81
2023-01-20T01:50:19.160Z,15.70
2023-01-20T01:54:42.442Z,15.72
2023-01-20T01:59:03.037Z,14.95
2023-01-20T02:03:21.265Z,14.01
2023-01-20T02:07:39.745Z,14.89
2023-01-20T02:12:03.186Z,15.37
2023-01-20T02:16:48.626Z,15.58
2023-01-20T02:21:44.291Z,15.60
2023-01-20T02:26:28.566Z,15.68
2023-01-20T02:32:02.693Z,15.69
2023-01-20T02:36:32.081Z,15.73
2023-01-20T02:41:10.185Z,15.69
2023-01-20T02:45:49.842Z,14.85
2023-01-20T02:50:43.169Z,14.05
2023-01-20T02:55:06.488Z,15.13
2023-01-20T02:59:32.297Z,15.54
2023-01-20T03:03:55.251Z,15.64
2023-01-20T03:08:14.484Z,15.61
2023-01-20T03:12:50.696Z,15.66
2023-01-20T03:17:08.442Z,15.75
2023-01-20T03:21:26.759Z,15.61
2023-01-20T03:25:46.249Z,15.68
2023-01-20T03:30:16.358Z,15.77
2023-01-20T03:34:36.968Z,15.66
2023-01-20T03:38:56.718Z,15.22
2023-01-20T03:43:27.728Z,14.09
2023-01-20T03:48:26.924Z,14.66
2023-01-20T03:52:57.701Z,15.37
2023-01-20T03:57:21.799Z,15.49
2023-01-20T04:01:44.391Z,15.53
2023-01-20T04:06:06.918Z,15.58
2023-01-20T04:10:27.772Z,15.63
2023-01-20T04:14:46.611Z,15.62
2023-01-20T04:19:04.315Z,15.73
2023-01-20T04:23:48.408Z,15.68
2023-01-20T04:28:06.280Z,15.57
2023-01-20T04:32:23.814Z,14.50
2023-01-20T04:36:42.459Z,14.26
2023-01-20T04:41:01.572Z,15.11
2023-01-20T04:45:20.483Z,15.50
2023-01-20T04:49:38.269Z,15.65
2023-01-20T04:54:00.136Z,15.67
2023-01-20T04:58:17.617Z,15.65
2023-01-20T05:02:35.329Z,15.66
2023-01-20T05:06:53.118Z,15.66
2023-01-20T05:11:10.959Z,15.73
2023-01-20T05:15:28.800Z,15.74
2023-01-20T05:19:46.548Z,15.78
2023-01-20T05:24:04.388Z,15.81
2023-01-20T05:28:22.401Z,15.68
2023-01-20T05:32:40.035Z,15.84
2023-01-20T05:36:58.030Z,15.71
2023-01-20T05:41:15.706Z,15.49
2023-01-20T05:45:34.003Z,14.29
2023-01-20T05:49:51.434Z,14.24
2023-01-20T05:54:09.060Z,15.19
2023-01-20T05:58:26.547Z,15.50
2023-01-20T06:02:44.365Z,15.65
2023-01-20T06:07:01.994Z,15.61
2023-01-20T06:11:19.858Z,15.67
2023-01-20T06:15:37.358Z,15.63
2023-01-20T06:19:55.703Z,15.66
2023-01-20T06:24:13.197Z,15.72
2023-01-20T06:28:31.142Z,15.82
2023-01-20T06:32:48.908Z,15.69
2023-01-20T06:37:06.570Z,15.80
2023-01-20T06:41:24.346Z,15.78
2023-01-20T06:45:42.298Z,15.33
2023-01-20T06:49:59.785Z,14.19
2023-01-20T06:54:17.633Z,14.79
2023-01-20T06:58:35.093Z,14.71
2023-01-20T07:02:53.047Z,14.96
2023-01-20T07:07:12.872Z,14.87
2023-01-20T07:11:31.657Z,15.00
2023-01-20T07:15:49.149Z,15.36
2023-01-20T07:20:07.513Z,15.26
2023-01-20T07:24:25.211Z,14.24
2023-01-20T07:28:42.887Z,15.08
2023-01-20T07:33:00.771Z,15.12
2023-01-20T07:37:18.272Z,15.12
2023-01-20T07:41:35.844Z,15.21
2023-01-20T07:45:57.738Z,15.25
2023-01-20T07:50:15.973Z,15.40
2023-01-20T07:54:33.622Z,15.21
2023-01-20T07:58:51.983Z,14.42
2023-01-20T08:03:09.432Z,15.31
2023-01-20T08:07:27.047Z,15.42
2023-01-20T08:11:44.517Z,15.41
2023-01-20T08:16:09.545Z,15.49
2023-01-20T08:20:27.231Z,15.55
2023-01-20T08:24:44.780Z,15.70
2023-01-20T08:29:09.663Z,15.57
2023-01-20T08:33:27.436Z,14.87
2023-01-20T08:37:45.139Z,15.52
2023-01-20T08:42:02.730Z,15.67
2023-01-20T08:46:22.135Z,15.57
2023-01-20T08:50:39.756Z,15.54
2023-01-20T08:54:58.875Z,15.63
2023-01-20T08:59:16.600Z,15.70
2023-01-20T09:03:34.101Z,15.61
2023-01-20T09:07:51.758Z,14.87
2023-01-20T09:12:09.416Z,15.54
2023-01-20T09:16:27.127Z,15.64
2023-01-20T09:20:44.703Z,15.73
2023-01-20T09:25:02.848Z,15.77
2023-01-20T09:29:21.155Z,15.81
2023-01-20T09:33:39.647Z,15.97
2023-01-20T09:38:16.061Z,16.17
2023-01-20T09:43:33.102Z,16.11
2023-01-20T09:47:53.323Z,15.40
2023-01-20T09:52:42.795Z,15.90
2023-01-20T09:57:02.201Z,15.88
2023-01-20T10:01:55.337Z,16.04
2023-01-20T10:06:42.960Z,16.08
2023-01-20T10:11:19.548Z,16.06
2023-01-20T10:15:40.436Z,16.16
2023-01-20T10:20:38.968Z,16.21
2023-01-20T10:25:28.370Z,16.24
2023-01-20T10:29:52.166Z,15.97
2023-01-20T10:34:17.401Z,15.40
2023-01-20T10:38:55.963Z,15.82
2023-01-20T10:43:16.962Z,15.98
2023-01-20T10:48:00.416Z,16.03
2023-01-20T10:52:58.554Z,16.08
2023-01-20T10:57:16.385Z,16.09
2023-01-20T11:01:35.395Z,16.11
2023-01-20T11:05:52.996Z,16.12
2023-01-20T11:10:25.161Z,16.29
2023-01-20T11:14:43.634Z,16.26
2023-01-20T11:19:07.622Z,15.53
2023-01-20T11:23:46.344Z,16.05
2023-01-20T11:28:06.369Z,16.09
2023-01-20T11:32:40.344Z,16.09
2023-01-20T11:37:06.747Z,16.25
2023-01-20T11:41:31.706Z,16.30
2023-01-20T11:45:49.249Z,16.21
2023-01-20T11:50:09.684Z,16.28
2023-01-20T11:54:30.034Z,16.28
2023-01-20T11:59:02.028Z,16.35
2023-01-20T12:04:10.598Z,15.70
2023-01-20T12:08:50.692Z,16.15
2023-01-20T12:13:25.096Z,16.19
2023-01-20T12:18:04.378Z,16.36
2023-01-20T12:22:32.295Z,16.36
2023-01-20T12:26:50.403Z,16.40
2023-01-20T12:31:11.124Z,16.44
2023-01-20T12:35:39.084Z,16.50
2023-01-20T12:40:26.855Z,16.48
2023-01-20T12:44:58.149Z,15.84
2023-01-20T12:49:34.854Z,16.18
2023-01-20T12:54:17.114Z,17.11
2023-01-20T12:58:49.458Z,17.08
2023-01-20T13:03:32.544Z,16.57
2023-01-20T13:07:57.306Z,16.43
2023-01-20T13:12:39.500Z,16.36
2023-01-20T13:17:13.600Z,16.29
2023-01-20T13:21:34.911Z,16.25
2023-01-20T13:25:52.949Z,16.51
2023-01-20T13:30:50.984Z,15.43
2023-01-20T13:35:18.222Z,16.68
2023-01-20T13:39:42.106Z,16.94
2023-01-20T13:43:59.642Z,17.15
2023-01-20T13:48:23.772Z,17.09
2023-01-20T13:52:50.015Z,17.15
2023-01-20T13:57:20.736Z,17.13
2023-01-20T14:01:39.601Z,16.96
2023-01-20T14:06:02.430Z,16.96
2023-01-20T14:10:20.626Z,16.90
2023-01-20T14:14:42.315Z,16.93
2023-01-20T14:19:08.387Z,17.07
2023-01-20T14:23:35.653Z,16.97
2023-01-20T14:27:53.484Z,16.98
2023-01-20T14:32:22.241Z,17.01
2023-01-20T14:36:40.044Z,16.82
2023-01-20T14:40:57.645Z,16.81
2023-01-20T14:45:23.840Z,16.60
2023-01-20T14:49:43.561Z,15.19
2023-01-20T14:54:36.922Z,15.26
2023-01-20T14:58:56.159Z,16.35
2023-01-20T15:03:20.782Z,16.52
2023-01-20T15:07:38.550Z,16.68
2023-01-20T15:12:34.197Z,16.81
2023-01-20T15:16:53.124Z,16.78
2023-01-20T15:21:25.529Z,16.83
2023-01-20T15:25:43.141Z,16.86
2023-01-20T15:30:26.243Z,16.80
2023-01-20T15:34:43.671Z,16.76
2023-01-20T15:39:01.617Z,16.70
2023-01-20T15:43:19.262Z,16.80
2023-01-20T15:47:36.901Z,16.78
2023-01-20T15:51:54.559Z,16.02
2023-01-20T15:56:21.963Z,14.92
2023-01-20T16:00:43.836Z,15.75
2023-01-20T16:05:00.943Z,16.41
2023-01-20T16:09:30.006Z,16.56
2023-01-20T16:13:47.885Z,16.24
2023-01-20T16:18:06.067Z,15.82
2023-01-20T16:22:23.579Z,15.74
2023-01-20T16:26:45.933Z,15.76
2023-01-20T16:31:03.647Z,15.76
2023-01-20T16:35:23.569Z,15.98
2023-01-20T16:39:41.594Z,15.01
2023-01-20T16:43:59.380Z,15.73
2023-01-20T16:48:17.027Z,15.60
2023-01-20T16:52:35.372Z,15.77
2023-01-20T16:56:53.052Z,15.63
2023-01-20T17:01:13.548Z,15.74
2023-01-20T17:05:31.160Z,15.80
2023-01-20T17:09:48.986Z,16.04
2023-01-20T17:14:09.602Z,15.06
2023-01-20T17:18:27.076Z,16.15
2023-01-20T17:22:44.844Z,16.70
2023-01-20T17:27:02.466Z,16.83
2023-01-20T17:31:20.090Z,16.88
2023-01-20T17:35:37.799Z,16.86
2023-01-20T17:39:55.449Z,16.88
2023-01-20T17:44:13.660Z,16.95
2023-01-20T17:48:31.136Z,16.86
2023-01-20T17:52:48.947Z,16.99
2023-01-20T17:57:06.593Z,17.01
2023-01-20T18:01:27.765Z,16.99
2023-01-20T18:05:45.459Z,16.97
2023-01-20T18:10:03.054Z,16.83
2023-01-20T18:14:20.896Z,15.31
2023-01-20T18:18:43.388Z,15.31
2023-01-20T18:23:02.082Z,16.36
2023-01-20T18:27:19.519Z,16.71
2023-01-20T18:31:37.309Z,16.71
2023-01-20T18:35:55.545Z,16.79
2023-01-20T18:40:14.678Z,16.84
2023-01-20T18:44:32.370Z,16.90
2023-01-20T18:48:52.185Z,16.80
2023-01-20T18:53:10.125Z,16.82
2023-01-20T18:57:27.740Z,16.79
2023-01-20T19:01:45.336Z,16.74
2023-01-20T19:06:12.951Z,16.82
2023-01-20T19:10:30.567Z,16.79
2023-01-20T19:14:48.226Z,16.84
2023-01-20T19:19:07.205Z,16.82
2023-01-20T19:23:24.866Z,16.76
2023-01-20T19:27:42.338Z,16.75
2023-01-20T19:31:59.896Z,15.28
2023-01-20T19:36:19.406Z,14.94
2023-01-20T19:40:37.357Z,16.18
2023-01-20T19:44:55.144Z,16.50
2023-01-20T19:49:13.079Z,16.64
2023-01-20T19:53:31.546Z,16.58
2023-01-20T19:57:49.000Z,16.74
2023-01-20T20:02:12.244Z,16.61
2023-01-20T20:06:45.640Z,16.74
2023-01-20T20:11:04.546Z,16.72
2023-01-20T20:15:22.293Z,16.81
2023-01-20T20:19:39.882Z,16.71
2023-01-20T20:24:01.188Z,16.60
2023-01-20T20:28:19.011Z,15.86
2023-01-20T20:32:36.813Z,14.89
2023-01-20T20:36:54.768Z,15.78
2023-01-20T20:41:12.780Z,15.68
2023-01-20T20:45:31.046Z,15.65
2023-01-20T20:49:48.620Z,15.64
2023-01-20T20:54:06.386Z,15.73
2023-01-20T20:58:24.113Z,15.88
2023-01-20T21:02:43.201Z,15.86
2023-01-20T21:07:01.143Z,14.96
2023-01-20T21:11:20.606Z,15.87
2023-01-20T21:15:38.651Z,15.64
2023-01-20T21:19:56.199Z,15.65
2023-01-20T21:24:14.058Z,15.71
2023-01-20T21:28:33.084Z,15.76
2023-01-20T21:32:50.724Z,15.78
2023-01-20T21:37:08.855Z,15.90
2023-01-20T21:41:26.652Z,15.04
2023-01-20T21:45:44.317Z,15.45
2023-01-20T21:50:20.549Z,16.45
2023-01-20T21:54:40.016Z,16.74
2023-01-20T21:58:57.467Z,16.83
2023-01-20T22:03:15.023Z,16.78
2023-01-20T22:07:32.474Z,16.79
2023-01-20T22:11:50.628Z,16.92
2023-01-20T22:16:08.277Z,16.89
2023-01-20T22:20:26.034Z,16.87
2023-01-20T22:24:43.545Z,16.94
2023-01-20T22:29:01.583Z,16.83
2023-01-20T22:33:19.121Z,16.83
2023-01-20T22:37:36.794Z,16.71
2023-01-20T22:41:54.836Z,15.87
2023-01-20T22:46:13.979Z,14.97
2023-01-20T22:50:34.302Z,16.03
2023-01-20T22:54:51.993Z,16.48
2023-01-20T22:59:12.654Z,16.75
2023-01-20T23:03:31.081Z,16.72
2023-01-20T23:07:48.683Z,16.70
2023-01-20T23:12:06.489Z,16.85
2023-01-20T23:16:24.140Z,16.86
2023-01-20T23:20:41.942Z,16.82
2023-01-20T23:24:59.450Z,16.87
2023-01-20T23:29:17.106Z,16.93
2023-01-20T23:33:34.781Z,16.89
2023-01-20T23:37:52.415Z,16.85
2023-01-20T23:42:10.056Z,16.91
2023-01-20T23:46:27.632Z,16.87
2023-01-20T23:50:45.861Z,15.48
2023-01-20T23:55:03.544Z,14.93
2023-01-20T23:59:21.187Z,16.18
